Time;durP1;ratioP1;P1;durP2;ratioP2;P2;SDS_P1;SDS_P2;PMS_P1;PMS_P2;Temp;Humidity;BMP_temperature;BMP_pressure;BME280_temperature;BME280_humidity;BME280_pressure;Samples;Min_cycle;Max_cycle;Signal;HPM_P1;HPM_P2
2021/09/03 00:00:09;;;;;;;6.08;3.25;;;;;;;10.44;70.23;100623.91;1704208;81;21088;-79
2021/09/03 00:02:36;;;;;;;4.95;3.00;;;;;;;10.41;70.53;100633.76;1701951;81;21108;-80
2021/09/03 00:05:05;;;;;;;4.60;2.90;;;;;;;10.37;70.73;100629.98;1701410;81;20999;-80
2021/09/03 00:07:32;;;;;;;5.08;2.70;;;;;;;10.33;70.86;100631.03;1702922;82;20916;-79
2021/09/03 00:10:00;;;;;;;5.12;2.25;;;;;;;10.31;71.18;100630.47;1687884;82;20974;-78
2021/09/03 00:12:28;;;;;;;5.28;2.30;;;;;;;10.28;71.69;100630.16;1693912;81;21057;-78
2021/09/03 00:14:55;;;;;;;3.17;1.98;;;;;;;10.22;71.92;100632.48;1702139;83;21239;-80
2021/09/03 00:17:22;;;;;;;4.30;1.82;;;;;;;10.16;72.19;100629.48;1702164;82;21124;-79
2021/09/03 00:19:49;;;;;;;4.75;1.60;;;;;;;10.08;72.59;100636.88;1704229;82;21100;-76
2021/09/03 00:22:17;;;;;;;3.27;1.67;;;;;;;10.00;73.02;100640.02;1700615;81;21018;-75
2021/09/03 00:24:44;;;;;;;6.10;1.60;;;;;;;9.91;73.27;100641.52;1703252;82;20915;-81
2021/09/03 00:27:11;;;;;;;5.42;1.82;;;;;;;9.74;73.58;100634.09;1700304;81;21152;-81
2021/09/03 00:29:38;;;;;;;4.83;1.52;;;;;;;9.59;73.90;100631.53;1725365;80;20947;-79
2021/09/03 00:32:06;;;;;;;3.00;1.40;;;;;;;9.49;74.26;100631.95;1696703;81;20941;-78
2021/09/03 00:34:33;;;;;;;3.02;1.45;;;;;;;9.42;74.77;100630.80;1703384;84;20879;-79
2021/09/03 00:37:00;;;;;;;4.75;1.70;;;;;;;9.35;75.16;100632.30;1691785;83;20958;-76
2021/09/03 00:39:27;;;;;;;4.12;1.72;;;;;;;9.28;75.50;100638.34;1715531;83;21194;-77
2021/09/03 00:41:54;;;;;;;3.67;1.85;;;;;;;9.27;75.93;100641.25;1698311;83;21465;-80
2021/09/03 00:44:20;;;;;;;3.70;1.67;;;;;;;9.21;76.29;100639.03;1682534;83;20964;-75
2021/09/03 00:46:47;;;;;;;4.80;1.72;;;;;;;9.21;76.63;100644.89;1695737;83;21412;-77
2021/09/03 00:49:15;;;;;;;4.25;1.40;;;;;;;9.18;76.95;100642.71;1704070;83;21001;-77
2021/09/03 00:52:34;;;;;;;3.07;1.30;;;;;;;9.14;77.32;100640.53;1642569;78;10000203;-79
2021/09/03 00:55:01;;;;;;;5.12;1.70;;;;;;;9.00;77.69;100635.28;1728133;81;21460;-78
2021/09/03 00:57:28;;;;;;;2.80;1.42;;;;;;;8.94;77.98;100640.25;1692256;83;21175;-79
2021/09/03 00:59:56;;;;;;;2.60;1.27;;;;;;;8.89;78.14;100642.32;1655561;83;21018;-79
2021/09/03 01:02:23;;;;;;;4.05;1.57;;;;;;;8.87;78.29;100638.28;1680498;83;21664;-79
2021/09/03 01:04:50;;;;;;;4.05;1.60;;;;;;;8.83;78.43;100639.30;1680014;83;21695;-80
2021/09/03 01:07:18;;;;;;;3.70;1.70;;;;;;;8.81;78.69;100638.72;1677764;83;22031;-80
2021/09/03 01:09:45;;;;;;;3.47;1.60;;;;;;;8.81;78.75;100643.23;1681743;83;21122;-80
2021/09/03 01:12:12;;;;;;;3.30;1.50;;;;;;;8.81;78.88;100646.70;1678968;83;21680;-80
2021/09/03 01:14:40;;;;;;;5.10;1.60;;;;;;;8.81;79.20;100652.56;1674359;83;21159;-80
2021/09/03 01:17:08;;;;;;;3.08;1.52;;;;;;;8.82;79.33;100646.20;1679292;83;21531;-80
2021/09/03 01:19:34;;;;;;;2.55;1.45;;;;;;;8.83;79.45;100647.81;1683171;83;21579;-79
2021/09/03 01:22:02;;;;;;;4.67;1.55;;;;;;;8.84;79.58;100648.09;1681286;85;21538;-80
2021/09/03 01:24:30;;;;;;;3.25;1.75;;;;;;;8.83;79.68;100650.48;1678259;84;21709;-80
2021/09/03 01:26:57;;;;;;;3.92;1.62;;;;;;;8.83;79.80;100650.48;1680138;83;21068;-79
2021/09/03 01:29:24;;;;;;;2.62;1.50;;;;;;;8.82;79.86;100648.88;1675567;84;21003;-81
2021/09/03 01:31:51;;;;;;;4.55;1.87;;;;;;;8.81;79.97;100645.38;1678344;85;21135;-80
2021/09/03 01:34:17;;;;;;;4.25;1.72;;;;;;;8.82;79.98;100647.54;1670189;85;21024;-82
2021/09/03 01:36:45;;;;;;;3.70;1.50;;;;;;;8.82;79.90;100648.88;1677693;83;21035;-79
2021/09/03 01:39:12;;;;;;;4.45;1.50;;;;;;;8.82;79.93;100645.68;1671748;85;21134;-80
2021/09/03 01:41:38;;;;;;;2.98;1.30;;;;;;;8.83;80.04;100652.61;1673698;84;20968;-81
2021/09/03 01:44:05;;;;;;;3.02;1.40;;;;;;;8.81;80.11;100649.37;1669788;84;21117;-80
2021/09/03 01:46:32;;;;;;;3.22;1.50;;;;;;;8.81;80.29;100646.70;1674009;83;21094;-80
2021/09/03 01:49:00;;;;;;;3.10;1.45;;;;;;;8.79;80.41;100642.17;1670450;85;21114;-80
2021/09/03 01:51:27;;;;;;;4.12;1.52;;;;;;;8.78;80.50;100643.72;1660865;83;21111;-79
2021/09/03 01:53:54;;;;;;;3.27;1.60;;;;;;;8.75;80.84;100643.67;1670318;84;21016;-80
2021/09/03 01:56:21;;;;;;;4.03;1.60;;;;;;;8.75;80.88;100637.55;1668151;84;22017;-80
2021/09/03 01:58:48;;;;;;;3.90;1.45;;;;;;;8.75;80.93;100637.55;1666768;84;21100;-82
2021/09/03 02:01:15;;;;;;;3.05;1.37;;;;;;;8.78;80.96;100637.06;1660086;85;21131;-82
2021/09/03 02:03:42;;;;;;;4.00;1.47;;;;;;;8.77;81.02;100632.80;1712339;82;21035;-80
2021/09/03 02:06:09;;;;;;;3.30;1.42;;;;;;;8.77;80.98;100638.13;1710350;82;21024;-81
2021/09/03 02:08:37;;;;;;;2.37;1.27;;;;;;;8.75;80.88;100639.69;1710038;82;21040;-81
2021/09/03 02:11:04;;;;;;;3.65;1.52;;;;;;;8.74;80.85;100636.75;1661195;84;21058;-81
2021/09/03 02:13:31;;;;;;;4.00;1.40;;;;;;;8.74;80.93;100642.07;1698889;82;21083;-81
2021/09/03 02:15:57;;;;;;;3.00;1.12;;;;;;;8.75;80.84;100637.02;1710806;82;20986;-80
2021/09/03 02:18:24;;;;;;;2.75;1.37;;;;;;;8.76;80.88;100638.66;1675513;83;21000;-81
2021/09/03 02:20:50;;;;;;;3.65;1.30;;;;;;;8.74;81.03;100635.41;1675871;84;21184;-81
2021/09/03 02:23:18;;;;;;;2.72;1.32;;;;;;;8.73;80.94;100637.00;1676832;85;20977;-80
2021/09/03 02:25:48;;;;;;;2.98;1.30;;;;;;;8.68;80.96;100637.18;1666842;84;21095;-81
2021/09/03 02:28:15;;;;;;;3.42;1.47;;;;;;;8.65;80.97;100635.03;1674234;84;21079;-81
2021/09/03 02:30:44;;;;;;;3.05;1.10;;;;;;;8.63;80.98;100635.78;1670597;84;21150;-81
2021/09/03 02:33:11;;;;;;;2.12;1.22;;;;;;;8.59;80.78;100633.86;1674133;84;21882;-78
2021/09/03 02:35:38;;;;;;;2.50;1.60;;;;;;;8.56;80.97;100637.80;1677746;85;21083;-79
2021/09/03 02:38:06;;;;;;;2.90;1.47;;;;;;;8.53;81.08;100640.14;1670276;84;21622;-78
2021/09/03 02:40:33;;;;;;;8.85;1.82;;;;;;;8.49;81.07;100639.82;1666980;85;21587;-80
2021/09/03 02:43:01;;;;;;;3.92;1.30;;;;;;;8.45;81.00;100645.32;1678290;84;21041;-82
2021/09/03 02:45:28;;;;;;;3.15;1.37;;;;;;;8.40;81.03;100638.59;1661816;84;21797;-80
2021/09/03 02:47:57;;;;;;;3.75;1.52;;;;;;;8.35;81.07;100643.27;1670129;84;21084;-79
2021/09/03 02:50:25;;;;;;;3.75;1.37;;;;;;;8.30;81.24;100647.70;1702175;82;21011;-80
2021/09/03 02:52:52;;;;;;;3.12;1.37;;;;;;;8.26;81.42;100643.89;1710680;82;21180;-81
2021/09/03 02:55:22;;;;;;;3.35;1.40;;;;;;;8.22;81.53;100655.00;1705129;82;21573;-83
2021/09/03 02:57:49;;;;;;;3.55;1.45;;;;;;;8.21;81.50;100650.73;1662390;85;21467;-78
2021/09/03 03:00:17;;;;;;;4.25;1.50;;;;;;;8.20;81.52;100647.00;1667027;84;21206;-78
2021/09/03 03:02:44;;;;;;;4.58;1.57;;;;;;;8.18;81.54;100644.56;1707992;83;21083;-80
2021/09/03 03:05:11;;;;;;;2.98;1.30;;;;;;;8.16;81.64;100645.34;1707270;82;21039;-78
2021/09/03 03:07:38;;;;;;;4.33;1.85;;;;;;;8.15;81.80;100647.70;1700267;82;21655;-79
2021/09/03 03:10:08;;;;;;;2.62;1.30;;;;;;;8.13;81.91;100644.48;1708340;82;21090;-79
2021/09/03 03:12:35;;;;;;;3.02;1.32;;;;;;;8.13;82.10;100644.48;1717968;83;21051;-80
2021/09/03 03:15:02;;;;;;;3.50;1.35;;;;;;;8.12;82.21;100644.19;1721025;82;21122;-79
2021/09/03 03:17:28;;;;;;;4.42;1.60;;;;;;;8.09;82.29;100647.31;1656553;83;21171;-79
2021/09/03 03:19:58;;;;;;;3.52;1.57;;;;;;;8.10;82.43;100648.95;1672891;82;21110;-81
2021/09/03 03:22:25;;;;;;;4.00;1.50;;;;;;;8.10;82.48;100651.61;1554284;83;9999799;-81
2021/09/03 03:24:53;;;;;;;2.92;1.47;;;;;;;8.09;82.42;100649.98;1704329;82;21046;-82
2021/09/03 03:27:19;;;;;;;3.77;1.70;;;;;;;8.09;82.46;100651.31;1686789;82;21146;-79
2021/09/03 03:29:46;;;;;;;3.12;1.65;;;;;;;8.19;82.53;100657.34;1696267;82;21062;-79
2021/09/03 03:32:13;;;;;;;4.42;1.60;;;;;;;8.07;82.67;100649.42;1700850;82;21204;-79
2021/09/03 03:34:40;;;;;;;3.62;1.35;;;;;;;8.07;82.72;100652.09;1706674;82;21549;-81
2021/09/03 03:37:06;;;;;;;4.40;1.50;;;;;;;8.08;82.74;100648.90;1690701;82;21176;-75
2021/09/03 03:39:33;;;;;;;2.80;1.40;;;;;;;8.10;82.73;100655.60;1708918;82;20973;-78
2021/09/03 03:42:00;;;;;;;4.50;1.62;;;;;;;8.13;82.69;100655.13;1702309;82;21043;-78
2021/09/03 03:44:27;;;;;;;4.72;1.52;;;;;;;8.16;82.70;100654.66;1664299;83;22661;-77
2021/09/03 03:46:55;;;;;;;2.98;1.50;;;;;;;8.20;82.69;100654.45;1697459;82;20989;-76
2021/09/03 03:49:21;;;;;;;5.90;1.82;;;;;;;8.26;82.60;100653.20;1696594;82;21649;-77
2021/09/03 03:51:48;;;;;;;3.02;1.52;;;;;;;8.28;82.52;100656.44;1705250;82;21523;-78
2021/09/03 03:54:18;;;;;;;4.28;1.80;;;;;;;8.31;82.46;100655.44;1706359;82;21050;-77
2021/09/03 03:56:45;;;;;;;2.65;1.40;;;;;;;8.34;82.34;100656.30;1702037;82;21146;-77
2021/09/03 03:59:13;;;;;;;3.67;1.52;;;;;;;8.35;82.22;100654.43;1699098;82;21047;-77
2021/09/03 04:01:40;;;;;;;3.05;1.57;;;;;;;8.37;82.06;100653.68;1675923;83;21110;-78
2021/09/03 04:04:07;;;;;;;3.47;1.90;;;;;;;8.39;81.87;100659.58;1654737;83;22331;-77
2021/09/03 04:06:34;;;;;;;3.92;1.75;;;;;;;8.37;81.70;100662.47;1673498;84;21086;-77
2021/09/03 04:09:01;;;;;;;5.03;1.70;;;;;;;8.40;81.56;100662.55;1672535;83;21510;-77
2021/09/03 04:11:28;;;;;;;3.10;1.60;;;;;;;8.42;81.49;100663.09;1706865;82;21114;-76
2021/09/03 04:13:57;;;;;;;2.75;1.40;;;;;;;8.48;81.37;100666.14;1717947;82;21015;-78
2021/09/03 04:16:25;;;;;;;4.15;1.30;;;;;;;8.49;81.05;100657.13;1696628;83;21064;-77
2021/09/03 04:18:55;;;;;;;5.33;1.87;;;;;;;8.51;81.07;100665.66;1692728;82;21070;-78
2021/09/03 04:21:23;;;;;;;4.15;1.67;;;;;;;8.57;81.14;100666.56;1708521;82;21133;-77
2021/09/03 04:23:49;;;;;;;2.70;1.60;;;;;;;8.63;81.17;100659.75;1673525;83;22272;-76
2021/09/03 04:26:16;;;;;;;3.52;1.80;;;;;;;8.74;81.07;100665.23;1701740;82;21032;-78
2021/09/03 04:28:43;;;;;;;2.55;1.30;;;;;;;8.82;80.92;100662.19;1711085;82;21051;-79
2021/09/03 04:31:10;;;;;;;6.75;1.70;;;;;;;8.90;80.55;100657.24;1705965;82;21043;-79
2021/09/03 04:33:37;;;;;;;3.17;1.47;;;;;;;8.98;80.06;100668.00;1671727;83;21669;-79
2021/09/03 04:36:04;;;;;;;3.33;1.57;;;;;;;9.00;79.29;100661.12;1702333;82;21059;-80
2021/09/03 04:38:31;;;;;;;2.98;1.45;;;;;;;8.98;79.20;100657.34;1700577;82;21073;-80
2021/09/03 04:41:00;;;;;;;4.42;1.75;;;;;;;9.03;79.22;100660.63;1707531;82;21480;-80
2021/09/03 04:43:27;;;;;;;3.67;1.65;;;;;;;9.09;78.96;100662.33;1709811;82;21040;-77
2021/09/03 04:45:53;;;;;;;3.42;1.60;;;;;;;9.14;78.74;100657.86;1712029;82;21497;-78
2021/09/03 04:48:20;;;;;;;4.70;1.80;;;;;;;9.22;78.40;100661.18;1728982;82;21530;-78
2021/09/03 04:50:47;;;;;;;4.03;1.40;;;;;;;9.27;78.29;100651.38;1716454;82;21067;-80
2021/09/03 04:53:14;;;;;;;5.28;1.70;;;;;;;9.33;77.78;100650.92;1708286;82;21432;-80
2021/09/03 04:55:42;;;;;;;5.25;1.50;;;;;;;9.39;77.48;100652.61;1678717;84;21126;-78
2021/09/03 04:58:08;;;;;;;5.42;1.60;;;;;;;9.46;77.20;100658.56;1695462;83;21965;-79
2021/09/03 05:00:35;;;;;;;4.22;1.85;;;;;;;9.52;77.03;100659.45;1693968;82;21004;-77
2021/09/03 05:03:03;;;;;;;3.90;1.60;;;;;;;9.62;76.94;100656.91;1707129;82;21036;-77
2021/09/03 05:05:29;;;;;;;4.10;1.62;;;;;;;9.73;76.83;100654.63;1713395;83;21052;-81
2021/09/03 05:07:56;;;;;;;5.45;1.80;;;;;;;9.86;76.66;100666.78;1707406;82;21527;-79
2021/09/03 05:10:23;;;;;;;3.85;1.60;;;;;;;9.96;76.30;100667.44;1693267;82;21803;-77
2021/09/03 05:12:50;;;;;;;4.28;1.62;;;;;;;10.06;75.95;100669.67;1706491;82;21035;-79
2021/09/03 05:15:18;;;;;;;4.75;1.47;;;;;;;10.13;75.45;100680.69;1678259;84;21112;-76
2021/09/03 05:17:50;;;;;;;2.70;1.22;;;;;;;10.14;74.76;100672.98;1710658;83;21023;-78
2021/09/03 05:20:19;;;;;;;5.17;1.50;;;;;;;10.13;74.60;100667.34;1706389;82;21045;-78
2021/09/03 05:22:47;;;;;;;8.35;1.50;;;;;;;10.16;74.43;100668.98;1707406;82;20988;-78
2021/09/03 05:25:14;;;;;;;4.65;1.47;;;;;;;10.23;74.62;100671.45;1712063;82;20996;-78
2021/09/03 05:27:42;;;;;;;4.72;1.57;;;;;;;10.28;73.83;100669.68;1710348;82;21118;-78
2021/09/03 05:30:11;;;;;;;3.43;1.40;;;;;;;10.31;73.63;100665.70;1671470;83;21160;-78
2021/09/03 05:32:38;;;;;;;2.95;1.47;;;;;;;10.38;73.64;100662.83;1677988;83;21726;-78
2021/09/03 05:35:11;;;;;;;4.28;1.62;;;;;;;10.48;73.70;100654.91;1718746;82;21538;-79
2021/09/03 05:37:39;;;;;;;3.27;1.55;;;;;;;10.59;73.04;100673.16;1695688;83;21016;-82
2021/09/03 05:40:08;;;;;;;2.20;1.33;;;;;;;10.68;72.60;100656.41;1709821;82;20980;-79
2021/09/03 05:42:35;;;;;;;3.62;1.32;;;;;;;10.74;72.20;100664.75;1708969;82;21444;-81
2021/09/03 05:45:01;;;;;;;3.37;1.30;;;;;;;10.76;70.95;100658.63;1705466;82;21158;-80
2021/09/03 05:47:29;;;;;;;4.40;1.60;;;;;;;10.72;71.00;100662.84;1658809;83;22021;-78
2021/09/03 05:49:57;;;;;;;4.37;1.50;;;;;;;10.79;71.04;100662.63;1669170;83;21122;-77
2021/09/03 05:52:24;;;;;;;3.83;1.63;;;;;;;10.76;71.42;100666.64;1709488;82;21998;-79
2021/09/03 05:54:51;;;;;;;3.40;1.73;;;;;;;10.80;70.77;100666.94;1683156;83;21956;-81
2021/09/03 05:57:18;;;;;;;5.60;1.83;;;;;;;10.86;70.46;100660.58;1669485;83;22854;-79
2021/09/03 05:59:45;;;;;;;4.27;1.73;;;;;;;10.96;70.62;100649.95;1696916;82;21055;-81
2021/09/03 06:02:14;;;;;;;5.20;1.80;;;;;;;11.12;70.32;100652.70;1712790;82;21757;-83
2021/09/03 06:04:41;;;;;;;4.30;1.50;;;;;;;11.27;69.96;100646.92;1706311;83;21546;-81
2021/09/03 06:07:08;;;;;;;4.67;1.67;;;;;;;11.64;69.35;100643.89;1700435;82;21355;-82
2021/09/03 06:09:36;;;;;;;5.10;1.60;;;;;;;11.94;68.35;100644.55;1698755;82;21740;-84
2021/09/03 06:12:05;;;;;;;5.37;1.80;;;;;;;12.04;67.71;100647.79;1696208;82;21960;-79
2021/09/03 06:14:33;;;;;;;2.53;1.33;;;;;;;11.82;67.91;100644.77;1709311;82;21333;-80
2021/09/03 06:17:01;;;;;;;2.90;1.33;;;;;;;11.90;67.61;100648.29;1699082;82;21274;-79
2021/09/03 06:19:28;;;;;;;3.50;1.43;;;;;;;12.00;66.72;100642.16;1706307;82;21390;-81
2021/09/03 06:21:57;;;;;;;3.53;1.47;;;;;;;12.11;66.48;100640.30;1699143;82;21295;-81
2021/09/03 06:24:32;;;;;;;3.27;1.30;;;;;;;12.24;66.22;100628.28;1681838;83;21880;-79
2021/09/03 06:26:58;;;;;;;4.00;1.20;;;;;;;12.39;65.48;100634.46;1719798;83;21162;-83
2021/09/03 06:29:43;;;;;;;3.40;1.40;;;;;;;12.51;65.19;100637.43;1695941;82;21500;-81
2021/09/03 06:32:19;;;;;;;5.27;1.70;;;;;;;12.65;65.13;100633.13;1695525;82;21415;-80
2021/09/03 06:34:56;;;;;;;3.57;1.40;;;;;;;12.80;64.43;100625.09;1676585;83;21388;-83
2021/09/03 06:37:25;;;;;;;9.53;2.00;;;;;;;12.87;62.71;100635.53;1657760;83;21658;-82
2021/09/03 06:39:52;;;;;;;3.43;1.30;;;;;;;12.93;62.29;100629.61;1667294;83;21411;-80
2021/09/03 06:42:19;;;;;;;3.57;1.30;;;;;;;12.95;61.20;100626.94;1697804;82;21336;-80
2021/09/03 06:44:47;;;;;;;4.07;2.17;;;;;;;12.98;61.08;100626.94;1708216;82;21104;-77
2021/09/03 06:47:16;;;;;;;3.90;1.50;;;;;;;13.01;61.16;100628.53;1726322;82;21295;-77
2021/09/03 06:49:44;;;;;;;2.67;1.20;;;;;;;13.06;61.31;100623.69;1714607;82;21529;-80
2021/09/03 06:52:12;;;;;;;4.33;1.10;;;;;;;13.19;61.97;100628.48;1704683;82;21315;-76
2021/09/03 06:54:39;;;;;;;3.17;1.07;;;;;;;13.33;61.52;100630.91;1710727;82;21775;-78
2021/09/03 06:57:05;;;;;;;8.97;5.70;;;;;;;13.46;60.36;100630.03;1702966;82;21299;-77
2021/09/03 06:59:37;;;;;;;3.47;1.87;;;;;;;13.52;60.25;100632.45;1674329;83;21336;-77
2021/09/03 07:02:04;;;;;;;9.28;4.05;;;;;;;13.58;59.47;100634.56;1676780;84;22281;-77
2021/09/03 07:04:32;;;;;;;4.67;1.70;;;;;;;13.64;59.01;100625.41;1711207;82;21004;-78
2021/09/03 07:07:00;;;;;;;4.40;1.30;;;;;;;13.67;58.98;100627.55;1698416;82;21121;-77
2021/09/03 07:09:28;;;;;;;7.50;3.07;;;;;;;13.71;58.69;100621.09;1714054;82;21256;-78
2021/09/03 07:11:56;;;;;;;6.83;3.67;;;;;;;13.75;58.54;100621.59;1705734;82;21329;-78
2021/09/03 07:14:23;;;;;;;4.53;1.40;;;;;;;13.83;59.01;100627.73;1709024;82;21287;-75
2021/09/03 07:16:51;;;;;;;2.97;1.20;;;;;;;13.99;58.75;100631.69;1684354;83;21343;-77
2021/09/03 07:19:19;;;;;;;3.30;1.07;;;;;;;14.12;57.82;100631.07;1667429;84;22013;-78
2021/09/03 07:21:47;;;;;;;2.30;1.00;;;;;;;14.36;56.83;100627.68;1709011;82;21504;-77
2021/09/03 07:24:14;;;;;;;3.80;0.97;;;;;;;14.36;56.83;100627.68;1705698;82;21605;-76
2021/09/03 07:26:40;;;;;;;3.67;0.97;;;;;;;14.47;56.62;100618.44;1710701;82;21504;-77
2021/09/03 07:29:11;;;;;;;1.73;0.80;;;;;;;14.54;56.30;100621.64;1697578;83;21548;-76
2021/09/03 07:31:40;;;;;;;4.05;1.10;;;;;;;14.62;55.14;100629.11;1688883;83;21736;-77
2021/09/03 07:34:07;;;;;;;2.77;0.83;;;;;;;14.66;54.18;100624.77;1656734;84;21155;-75
2021/09/03 07:36:34;;;;;;;5.50;1.20;;;;;;;14.66;54.18;100624.77;1676804;83;21737;-76
2021/09/03 07:39:02;;;;;;;4.10;0.87;;;;;;;14.71;53.76;100627.42;1703869;82;21546;-76
2021/09/03 07:41:30;;;;;;;8.47;1.00;;;;;;;14.71;53.76;100627.42;1711989;82;21974;-76
2021/09/03 07:43:57;;;;;;;4.10;1.07;;;;;;;14.80;54.51;100610.66;1711554;82;22014;-77
2021/09/03 07:46:24;;;;;;;5.87;1.00;;;;;;;14.96;53.72;100616.16;1708337;82;22379;-77
2021/09/03 07:48:51;;;;;;;2.23;0.90;;;;;;;15.08;54.42;100607.16;1724663;83;21690;-77
2021/09/03 07:51:19;;;;;;;3.07;0.93;;;;;;;15.18;53.05;100599.52;1705114;82;21839;-79
2021/09/03 07:53:46;;;;;;;2.03;0.90;;;;;;;15.22;52.53;100579.81;1693448;83;21685;-78
2021/09/03 07:56:12;;;;;;;2.50;0.90;;;;;;;15.28;53.03;100598.60;1704063;82;21746;-78
2021/09/03 07:58:39;;;;;;;4.47;0.90;;;;;;;15.34;52.58;100592.87;1704178;82;22254;-77
2021/09/03 08:01:06;;;;;;;1.90;0.70;;;;;;;15.42;52.22;100602.19;1709871;83;21776;-78
2021/09/03 08:03:33;;;;;;;5.33;0.80;;;;;;;15.53;52.39;100580.80;1671562;83;21730;-79
2021/09/03 08:06:00;;;;;;;1.47;0.80;;;;;;;15.68;53.19;100583.85;1707554;82;22169;-77
2021/09/03 08:08:30;;;;;;;2.83;0.70;;;;;;;15.85;51.45;100586.03;1711526;82;21764;-82
2021/09/03 08:10:57;;;;;;;2.57;0.73;;;;;;;15.97;50.22;100574.28;1706466;82;21723;-82
2021/09/03 08:13:24;;;;;;;3.73;0.77;;;;;;;16.03;49.88;100582.55;1713905;82;21702;-81
2021/09/03 08:15:52;;;;;;;2.73;0.80;;;;;;;16.12;49.83;100571.89;1699648;82;21156;-81
2021/09/03 08:18:22;;;;;;;4.80;1.00;;;;;;;16.33;50.23;100568.34;1709759;82;21097;-83
2021/09/03 08:20:49;;;;;;;2.70;0.97;;;;;;;16.33;50.23;100568.34;1711660;82;21058;-82
2021/09/03 08:23:17;;;;;;;4.73;1.17;;;;;;;16.45;50.25;100560.56;1666668;84;21173;-79
2021/09/03 08:38:35;;;;;;;1.40;0.70;;;;;;;17.09;47.47;100540.55;1806021;77;22168;-75
2021/09/03 08:41:02;;;;;;;2.30;0.80;;;;;;;17.10;47.25;100560.47;1778734;79;21075;-75
2021/09/03 08:43:28;;;;;;;4.40;1.83;;;;;;;16.94;46.88;100551.08;1794385;78;21487;-76
2021/09/03 08:45:56;;;;;;;7.40;1.00;;;;;;;16.84;48.11;100558.81;1788161;78;21034;-80
2021/09/03 08:48:24;;;;;;;3.80;0.90;;;;;;;16.92;47.99;100555.19;1802586;78;21538;-81
2021/09/03 08:50:54;;;;;;;5.60;1.50;;;;;;;17.05;47.32;100543.60;1785761;78;21034;-81
2021/09/03 08:53:22;;;;;;;5.40;2.10;;;;;;;17.18;48.00;100537.39;1782193;78;21014;-81
2021/09/03 08:55:53;;;;;;;5.30;1.00;;;;;;;17.40;47.59;100536.64;1787415;78;21090;-80
2021/09/03 08:58:19;;;;;;;3.87;0.90;;;;;;;17.58;47.07;100530.87;1803844;78;21070;-77
2021/09/03 09:07:03;;;;;;;3.80;0.90;;;;;;;17.65;45.72;100532.59;1648520;78;9999914;-77
2021/09/03 09:09:35;;;;;;;1.70;0.70;;;;;;;17.50;45.79;100539.67;1738086;80;21783;-76
2021/09/03 09:23:09;;;;;;;4.37;1.00;;;;;;;17.70;44.85;100523.56;1769317;79;22540;-74
2021/09/03 09:25:36;;;;;;;3.10;1.10;;;;;;;17.70;44.92;100508.70;1776002;79;21070;-76
2021/09/03 09:28:20;;;;;;;1.47;0.70;;;;;;;17.74;45.12;100505.11;1787731;78;21159;-72
2021/09/03 09:30:49;;;;;;;3.27;1.67;;;;;;;17.73;45.39;100510.80;1771820;78;21041;-74
2021/09/03 09:33:19;;;;;;;4.67;2.40;;;;;;;17.62;45.89;100499.44;1794910;78;21137;-75
2021/09/03 09:35:52;;;;;;;2.40;1.10;;;;;;;17.45;45.78;100492.55;1775976;78;21022;-75
2021/09/03 09:38:22;;;;;;;3.27;0.97;;;;;;;17.30;45.44;100501.77;1782904;78;21046;-75
2021/09/03 09:41:00;;;;;;;2.73;0.93;;;;;;;17.23;45.73;100504.88;1770387;78;22205;-75
2021/09/03 09:43:36;;;;;;;3.43;0.90;;;;;;;17.29;46.26;100500.18;1790087;78;21131;-74
2021/09/03 09:46:25;;;;;;;2.10;0.80;;;;;;;17.36;46.16;100495.16;1777779;78;21081;-79
2021/09/03 09:48:57;;;;;;;3.70;0.90;;;;;;;17.39;46.47;100504.56;1785057;78;21489;-75
2021/09/03 09:51:48;;;;;;;2.90;0.83;;;;;;;17.46;46.52;100498.19;1783403;78;21085;-78
2021/09/03 09:54:28;;;;;;;1.93;0.80;;;;;;;17.64;46.48;100505.91;1796874;78;21492;-78
2021/09/03 09:57:01;;;;;;;3.80;1.20;;;;;;;17.87;45.43;100506.19;1751641;79;21085;-77
2021/09/03 09:59:32;;;;;;;2.60;0.80;;;;;;;18.03;44.55;100491.20;1786053;78;21494;-75
2021/09/03 10:02:04;;;;;;;2.52;0.80;;;;;;;18.03;44.28;100489.85;1773523;78;21101;-74
2021/09/03 10:04:32;;;;;;;3.33;1.20;;;;;;;17.98;45.51;100489.17;1796409;78;21038;-75
2021/09/03 10:07:06;;;;;;;4.83;1.10;;;;;;;17.91;46.22;100488.25;1799493;78;21091;-77
2021/09/03 10:09:34;;;;;;;3.63;0.97;;;;;;;17.94;46.57;100485.49;1798581;79;20998;-75
2021/09/03 10:12:02;;;;;;;1.97;0.87;;;;;;;18.01;44.73;100490.70;1788423;79;20994;-76
2021/09/03 10:14:34;;;;;;;1.80;1.00;;;;;;;17.97;45.16;100477.56;1802809;78;21120;-75
2021/09/03 10:17:03;;;;;;;2.60;0.90;;;;;;;17.80;45.25;100487.70;1784180;78;21049;-80
2021/09/03 10:19:35;;;;;;;2.40;1.00;;;;;;;17.69;44.57;100482.25;1781587;78;21101;-78
2021/09/03 10:22:11;;;;;;;3.67;0.90;;;;;;;17.69;45.48;100478.20;1779592;78;27122;-77
2021/09/03 10:24:38;;;;;;;3.10;0.90;;;;;;;17.77;44.74;100474.02;1800998;78;21049;-75
2021/09/03 10:27:06;;;;;;;4.30;1.20;;;;;;;17.75;45.26;100462.68;1796371;78;21030;-74
2021/09/03 10:29:46;;;;;;;3.13;1.10;;;;;;;17.70;45.93;100483.88;1775038;78;21094;-75
2021/09/03 10:32:20;;;;;;;3.30;1.00;;;;;;;17.80;45.58;100465.27;1770941;78;21030;-73
2021/09/03 10:34:51;;;;;;;2.23;1.00;;;;;;;17.96;44.88;100461.64;1804685;78;21132;-76
2021/09/03 10:37:33;;;;;;;3.07;1.00;;;;;;;18.08;44.70;100471.34;1781392;79;21137;-76
2021/09/03 10:40:24;;;;;;;3.58;0.88;;;;;;;18.11;44.98;100473.99;1770534;79;21089;-75
2021/09/03 10:42:55;;;;;;;5.33;0.90;;;;;;;18.03;44.76;100476.34;1777958;78;21595;-77
2021/09/03 10:45:34;;;;;;;2.17;1.10;;;;;;;17.96;44.74;100457.59;1792220;78;21799;-74
2021/09/03 10:48:14;;;;;;;4.57;2.23;;;;;;;18.01;44.69;100464.23;1783900;78;21002;-76
2021/09/03 10:50:55;;;;;;;3.63;1.80;;;;;;;18.21;45.18;100455.59;1798441;78;20979;-75
2021/09/03 10:53:28;;;;;;;2.27;1.20;;;;;;;18.41;44.96;100450.20;1791846;78;21046;-75
2021/09/03 10:56:17;;;;;;;2.67;1.10;;;;;;;18.45;44.61;100457.13;1790193;78;20987;-77
2021/09/03 10:58:52;;;;;;;3.63;1.20;;;;;;;18.45;44.08;100454.42;1798609;78;21794;-75
2021/09/03 11:01:27;;;;;;;2.17;0.90;;;;;;;18.46;44.42;100455.48;1780764;78;21027;-77
2021/09/03 11:04:07;;;;;;;3.10;1.40;;;;;;;18.44;43.75;100451.48;1779248;78;20991;-76
2021/09/03 11:06:40;;;;;;;2.80;1.13;;;;;;;18.42;43.85;100446.38;1776492;78;20995;-76
2021/09/03 11:09:21;;;;;;;3.17;1.30;;;;;;;18.45;43.73;100437.64;1799792;78;21481;-76
2021/09/03 11:11:50;;;;;;;;;;;;;;;18.49;43.79;100435.11;1784784;78;21520;-77
2021/09/03 11:14:23;;;;;;;4.10;1.50;;;;;;;18.56;43.60;100429.24;1795284;78;20208;-75
2021/09/03 11:16:58;;;;;;;8.27;5.67;;;;;;;18.57;44.19;100428.95;1790291;78;21469;-75
2021/09/03 11:19:38;;;;;;;6.17;3.03;;;;;;;18.60;43.32;100428.88;1804519;78;21496;-77
2021/09/03 11:22:13;;;;;;;3.57;1.47;;;;;;;18.75;42.21;100425.75;1800478;78;21093;-76
2021/09/03 11:24:48;;;;;;;2.80;1.33;;;;;;;18.83;42.17;100430.40;1801840;78;21164;-76
2021/09/03 11:27:22;;;;;;;3.20;1.57;;;;;;;18.80;42.46;100412.65;1788058;78;21018;-77
2021/09/03 11:29:56;;;;;;;2.27;1.13;;;;;;;18.80;43.56;100409.38;1780975;78;21167;-76
2021/09/03 11:32:31;;;;;;;5.87;1.67;;;;;;;18.87;43.14;100411.06;1790946;78;20983;-75
2021/09/03 11:35:13;;;;;;;3.83;1.23;;;;;;;18.95;41.83;100407.59;1801424;78;20995;-76
2021/09/03 11:37:50;;;;;;;3.62;1.50;;;;;;;19.01;41.39;100397.94;1798333;78;21055;-77
2021/09/03 11:40:26;;;;;;;3.73;1.40;;;;;;;18.98;41.36;100408.28;1790208;78;21035;-76
2021/09/03 11:42:58;;;;;;;2.47;1.30;;;;;;;18.90;41.86;100391.48;1784839;78;21093;-75
2021/09/03 11:45:34;;;;;;;3.33;1.50;;;;;;;18.82;42.52;100390.93;1801656;78;21018;-75
2021/09/03 11:48:06;;;;;;;4.93;1.60;;;;;;;18.83;43.51;100380.34;1782265;78;20994;-76
2021/09/03 11:50:39;;;;;;;;;;;;;;;18.95;42.75;100386.47;1794259;78;21516;-77
2021/09/03 11:53:15;;;;;;;4.30;1.53;;;;;;;19.08;42.63;100382.80;1787672;78;20166;-75
2021/09/03 11:55:47;;;;;;;4.00;1.90;;;;;;;19.24;42.73;100383.13;1786371;78;21415;-77
2021/09/03 11:58:15;;;;;;;5.00;1.73;;;;;;;19.31;42.40;100390.78;1781901;78;21227;-77
2021/09/03 12:00:52;;;;;;;3.97;2.10;;;;;;;19.32;41.89;100377.49;1783997;78;21105;-76
2021/09/03 12:03:40;;;;;;;4.07;1.97;;;;;;;19.31;42.43;100367.20;1772591;78;21319;-76
2021/09/03 12:06:11;;;;;;;3.93;2.00;;;;;;;19.27;42.00;100365.45;1792207;78;21038;-77
2021/09/03 12:08:38;;;;;;;;;;;;;;;19.14;42.76;100368.56;1786978;78;21034;-77